createdAt,value
2018-06-25T09:19:49.665Z,22.4
2018-06-25T09:21:29.970Z,23.1
2018-06-25T09:26:42.001Z,23.6
2018-06-25T09:31:54.130Z,23.7
2018-06-25T09:37:06.305Z,23.8
2018-06-25T09:42:18.267Z,23.7
2018-06-25T09:47:30.403Z,24.2
2018-06-25T09:52:42.336Z,24.4
2018-06-25T09:57:55.049Z,25
2018-06-25T10:03:06.485Z,24.6
2018-06-25T10:08:18.687Z,24.5
2018-06-25T10:13:30.624Z,24.9
2018-06-25T10:18:42.688Z,24.7
2018-06-25T10:23:54.786Z,24.8
2018-06-25T10:29:06.903Z,24.2
2018-06-25T10:34:19.015Z,24.4
2018-06-25T10:39:30.997Z,26.3
2018-06-25T10:44:43.142Z,24.7
2018-06-25T10:49:55.185Z,24.4
2018-06-25T10:55:07.431Z,25
2018-06-25T11:00:19.383Z,26
2018-06-25T11:05:31.512Z,26.2
2018-06-25T11:10:43.444Z,26.4
2018-06-25T11:15:55.483Z,25.5
2018-06-25T11:21:09.619Z,24.9
2018-06-25T11:26:19.728Z,25.1
2018-06-25T11:31:31.712Z,25.7
2018-06-25T11:36:43.827Z,26.2
2018-06-25T11:41:55.890Z,26.5
2018-06-25T11:47:08.419Z,25.9
2018-06-25T11:52:20.154Z,25.2
2018-06-25T11:57:32.446Z,25.5
2018-06-25T12:02:44.135Z,28.6
2018-06-25T12:07:56.207Z,29.8
2018-06-25T12:13:08.508Z,28.5
2018-06-25T12:18:20.496Z,27.3
2018-06-25T12:23:32.535Z,26.2
2018-06-25T12:28:44.585Z,30
2018-06-25T12:33:56.642Z,29.8
2018-06-25T12:39:08.744Z,29.9
2018-06-25T12:44:20.827Z,27.8
2018-06-25T12:49:32.962Z,26.9
2018-06-25T12:54:45.215Z,27.2
2018-06-25T12:59:57.020Z,27.5
2018-06-25T13:05:09.037Z,27.6
2018-06-25T13:10:21.118Z,27.4
2018-06-25T13:15:33.328Z,30.7
2018-06-25T13:20:45.390Z,30.6
2018-06-25T13:25:57.417Z,30.8
2018-06-25T13:31:09.793Z,29.8
2018-06-25T13:36:21.466Z,30.3
2018-06-25T13:41:33.610Z,30.1
2018-06-25T13:46:45.742Z,28.5
2018-06-25T13:51:57.763Z,29.1
2018-06-25T13:57:09.842Z,29.6
2018-06-25T14:02:21.965Z,27.7
2018-06-25T14:07:33.984Z,29.2
2018-06-25T14:12:45.995Z,28.7
2018-06-25T14:17:58.160Z,27.5
2018-06-25T14:23:10.274Z,28
2018-06-25T14:28:22.364Z,28.4
2018-06-25T14:33:56.867Z,27.8
2018-06-25T14:40:26.798Z,27.6
2018-06-25T14:46:46.414Z,28.8
2018-06-25T14:53:16.007Z,27.3
2018-06-25T14:59:48.259Z,27.7
